createdAt,value
2018-09-02T00:01:03.337Z,12.95
2018-09-02T00:03:31.769Z,12.94
2018-09-02T00:06:00.598Z,12.94
2018-09-02T00:08:29.033Z,12.92
2018-09-02T00:10:57.480Z,12.90
2018-09-02T00:13:26.013Z,12.91
2018-09-02T00:15:54.446Z,12.88
2018-09-02T00:18:22.889Z,12.88
2018-09-02T00:20:52.474Z,12.85
2018-09-02T00:23:21.873Z,12.82
2018-09-02T00:25:50.399Z,12.78
2018-09-02T00:28:19.714Z,12.78
2018-09-02T00:30:48.158Z,12.77
2018-09-02T00:33:16.751Z,12.70
2018-09-02T00:35:45.433Z,12.59
2018-09-02T00:38:13.862Z,12.53
2018-09-02T00:40:42.309Z,12.53
2018-09-02T00:43:11.151Z,12.53
2018-09-02T00:45:39.589Z,12.52
2018-09-02T00:48:08.040Z,12.52
2018-09-02T00:50:36.508Z,12.51
2018-09-02T00:53:05.224Z,12.50
2018-09-02T00:55:33.834Z,12.50
2018-09-02T00:58:02.479Z,12.50
2018-09-02T01:00:30.917Z,12.51
2018-09-02T01:02:59.350Z,12.50
2018-09-02T01:05:28.440Z,12.46
2018-09-02T01:07:57.565Z,12.44
2018-09-02T01:10:26.198Z,12.40
2018-09-02T01:12:54.754Z,12.37
2018-09-02T01:15:23.490Z,12.37
2018-09-02T01:17:51.906Z,12.39
2018-09-02T01:20:20.873Z,12.32
2018-09-02T01:22:49.810Z,12.29
2018-09-02T01:25:18.255Z,12.27
2018-09-02T01:27:47.293Z,12.24
2018-09-02T01:30:15.718Z,12.24
2018-09-02T01:35:24.253Z,11.41
2018-09-02T01:37:53.090Z,12.29
2018-09-02T01:40:21.622Z,12.22
2018-09-02T01:42:50.182Z,12.22
2018-09-02T01:45:20.235Z,12.21
2018-09-02T01:47:49.258Z,12.23
2018-09-02T01:50:17.930Z,12.21
2018-09-02T01:52:46.706Z,12.15
2018-09-02T01:55:15.714Z,12.14
2018-09-02T01:57:44.398Z,12.12
2018-09-02T02:00:13.294Z,12.10
2018-09-02T02:02:42.270Z,12.10
2018-09-02T02:05:11.010Z,12.08
2018-09-02T02:07:39.837Z,12.07
2018-09-02T02:10:08.309Z,12.02
2018-09-02T02:12:37.041Z,12.03
2018-09-02T02:15:05.817Z,12.05
2018-09-02T02:17:34.309Z,12.05
2018-09-02T02:20:02.785Z,12.03
2018-09-02T02:22:31.790Z,12.02
2018-09-02T02:25:00.274Z,12.02
2018-09-02T02:27:28.832Z,12.03
2018-09-02T02:29:57.697Z,11.99
2018-09-02T02:32:26.164Z,11.96
2018-09-02T02:34:54.650Z,11.95
2018-09-02T02:37:23.338Z,11.97
2018-09-02T02:39:51.785Z,11.94
2018-09-02T02:42:21.064Z,11.93
2018-09-02T02:44:50.006Z,11.92
2018-09-02T02:47:18.731Z,11.89
2018-09-02T02:49:47.381Z,11.89
2018-09-02T02:52:15.840Z,11.92
2018-09-02T02:54:44.294Z,11.92
2018-09-02T02:57:13.099Z,11.93
2018-09-02T02:59:41.700Z,11.94
2018-09-02T03:02:10.150Z,11.94
2018-09-02T03:04:41.113Z,11.92
2018-09-02T03:07:10.569Z,11.88
2018-09-02T03:09:39.026Z,11.84
2018-09-02T03:12:07.586Z,11.82
2018-09-02T03:14:36.421Z,11.81
2018-09-02T03:17:04.887Z,10.07
2018-09-02T03:19:33.529Z,11.81
2018-09-02T03:22:02.490Z,11.82
2018-09-02T03:24:30.922Z,11.83
2018-09-02T03:26:59.385Z,11.81
2018-09-02T03:29:28.133Z,11.84
2018-09-02T03:31:56.579Z,11.86
2018-09-02T03:34:25.046Z,11.86
2018-09-02T03:36:53.973Z,11.85
2018-09-02T03:39:22.482Z,11.84
2018-09-02T03:41:51.610Z,11.85
2018-09-02T03:44:20.322Z,11.85
2018-09-02T03:46:48.765Z,11.84
2018-09-02T03:49:17.398Z,11.85
2018-09-02T03:51:45.993Z,11.88
2018-09-02T03:54:14.459Z,11.87
2018-09-02T03:56:43.694Z,11.71
2018-09-02T03:59:13.215Z,11.87
2018-09-02T04:01:41.753Z,11.87
2018-09-02T04:04:10.249Z,11.88
2018-09-02T04:06:38.861Z,11.88
2018-09-02T04:09:09.352Z,11.87
2018-09-02T04:11:38.042Z,11.89
2018-09-02T04:14:06.618Z,11.88
2018-09-02T04:16:35.072Z,11.88
2018-09-02T04:19:03.857Z,11.88
2018-09-02T04:21:32.396Z,11.88
2018-09-02T04:24:00.869Z,11.95
2018-09-02T04:26:29.341Z,12.01
2018-09-02T04:28:57.862Z,12.04
2018-09-02T04:31:26.302Z,12.07
2018-09-02T04:33:56.130Z,12.06
2018-09-02T04:36:24.827Z,12.03
2018-09-02T04:38:53.287Z,12.06
2018-09-02T04:41:21.867Z,12.05
2018-09-02T04:43:51.418Z,12.09
2018-09-02T04:46:19.853Z,12.08
2018-09-02T04:48:48.321Z,12.08
2018-09-02T04:51:17.473Z,12.03
2018-09-02T04:53:45.989Z,12.08
2018-09-02T04:56:14.462Z,12.11
2018-09-02T04:58:42.985Z,12.12
2018-09-02T05:01:11.606Z,12.15
2018-09-02T05:03:40.081Z,12.24
2018-09-02T05:06:09.017Z,12.32
2018-09-02T05:08:37.445Z,12.40
2018-09-02T05:11:06.401Z,12.46
2018-09-02T05:13:35.166Z,12.52
2018-09-02T05:16:03.658Z,12.56
2018-09-02T05:18:32.109Z,12.59
2018-09-02T05:21:00.547Z,12.62
2018-09-02T05:23:28.983Z,12.66
2018-09-02T05:25:57.533Z,12.70
2018-09-02T05:28:26.015Z,12.72
2018-09-02T05:30:54.457Z,12.77
2018-09-02T05:33:22.929Z,12.83
2018-09-02T05:35:51.930Z,12.89
2018-09-02T05:38:20.981Z,12.96
2018-09-02T05:40:49.529Z,13.04
2018-09-02T05:43:18.161Z,13.10
2018-09-02T05:45:46.597Z,13.19
2018-09-02T05:48:15.065Z,13.27
2018-09-02T05:50:43.809Z,13.37
2018-09-02T05:53:12.763Z,13.47
2018-09-02T05:55:41.510Z,13.58
2018-09-02T05:58:10.481Z,13.66
2018-09-02T06:00:39.007Z,13.77
2018-09-02T06:03:07.876Z,13.86
2018-09-02T06:05:36.591Z,13.95
2018-09-02T06:08:05.053Z,14.05
2018-09-02T06:10:33.566Z,14.14
2018-09-02T06:13:02.081Z,14.23
2018-09-02T06:15:30.527Z,14.31
2018-09-02T06:17:59.169Z,14.40
2018-09-02T06:20:27.687Z,14.50
2018-09-02T06:22:56.121Z,14.57
2018-09-02T06:25:24.607Z,14.65
2018-09-02T06:27:59.933Z,14.73
2018-09-02T06:30:28.435Z,14.83
2018-09-02T06:32:56.913Z,14.91
2018-09-02T06:35:25.564Z,14.99
2018-09-02T06:37:54.021Z,15.08
2018-09-02T06:40:22.605Z,15.15
2018-09-02T06:42:57.943Z,15.28
2018-09-02T06:45:26.463Z,15.38
2018-09-02T06:47:54.898Z,15.49
2018-09-02T06:50:23.709Z,15.62
2018-09-02T06:52:52.240Z,15.76
2018-09-02T06:55:21.578Z,15.38
2018-09-02T06:57:50.349Z,16.09
2018-09-02T07:00:18.806Z,16.48
2018-09-02T07:02:47.243Z,16.92
2018-09-02T07:05:16.609Z,17.29
2018-09-02T07:07:45.598Z,17.68
2018-09-02T07:10:14.049Z,18.26
2018-09-02T07:12:42.584Z,18.69
2018-09-02T07:15:11.060Z,18.84
2018-09-02T07:17:39.494Z,18.97
2018-09-02T07:20:08.470Z,19.22
2018-09-02T07:22:36.885Z,19.77
2018-09-02T07:25:05.356Z,20.22
2018-09-02T07:27:34.335Z,20.28
2018-09-02T07:30:02.819Z,20.59
2018-09-02T07:32:31.277Z,21.06
2018-09-02T07:35:00.032Z,21.13
2018-09-02T07:37:28.465Z,21.39
2018-09-02T07:39:56.912Z,21.81
2018-09-02T07:42:25.556Z,21.78
2018-09-02T07:44:54.038Z,22.05
2018-09-02T07:47:22.549Z,22.46
2018-09-02T07:49:51.194Z,22.81
2018-09-02T07:52:19.673Z,22.92
2018-09-02T07:54:48.124Z,22.86
2018-09-02T07:57:17.473Z,22.87
2018-09-02T07:59:45.934Z,22.87
2018-09-02T08:02:14.377Z,23.26
2018-09-02T08:04:42.959Z,23.74
2018-09-02T08:07:11.532Z,23.74
2018-09-02T08:09:39.966Z,24.02
2018-09-02T08:12:08.740Z,24.31
2018-09-02T08:14:37.181Z,24.11
2018-09-02T08:17:05.849Z,23.98
2018-09-02T08:19:34.789Z,24.50
2018-09-02T08:22:03.310Z,24.85
2018-09-02T08:24:31.856Z,25.44
2018-09-02T08:27:00.678Z,25.71
2018-09-02T08:29:29.116Z,25.88
2018-09-02T08:31:57.614Z,26.35
2018-09-02T08:34:26.532Z,26.78
2018-09-02T08:36:54.992Z,27.17
2018-09-02T08:39:23.459Z,27.55
2018-09-02T08:41:52.351Z,27.92
2018-09-02T08:44:20.801Z,28.28
2018-09-02T08:46:49.270Z,28.58
2018-09-02T08:49:17.830Z,28.76
2018-09-02T08:51:46.262Z,28.64
2018-09-02T08:54:14.689Z,28.57
2018-09-02T08:56:43.357Z,28.65
2018-09-02T08:59:11.799Z,28.59
2018-09-02T09:01:42.546Z,28.58
2018-09-02T09:04:11.032Z,27.62
2018-09-02T09:06:39.461Z,27.63
2018-09-02T09:09:08.955Z,27.98
2018-09-02T09:11:37.522Z,28.52
2018-09-02T09:14:06.056Z,28.46
2018-09-02T09:16:34.629Z,28.28
2018-09-02T09:19:03.249Z,28.15
2018-09-02T09:21:31.736Z,27.90
2018-09-02T09:24:00.270Z,27.95
2018-09-02T09:26:28.797Z,27.33
2018-09-02T09:28:57.261Z,27.54
2018-09-02T09:31:25.711Z,27.89
2018-09-02T09:33:54.578Z,27.14
2018-09-02T09:36:27.178Z,26.71
2018-09-02T09:38:56.141Z,27.12
2018-09-02T09:41:24.576Z,28.11
2018-09-02T09:43:53.020Z,28.64
2018-09-02T09:46:21.573Z,27.74
2018-09-02T09:48:50.925Z,27.98
2018-09-02T09:51:19.657Z,28.41
2018-09-02T09:53:48.308Z,28.37
2018-09-02T09:56:16.741Z,28.42
2018-09-02T09:58:45.186Z,28.40
2018-09-02T10:01:14.094Z,28.65
2018-09-02T10:03:42.601Z,29.19
2018-09-02T10:06:11.433Z,29.76
2018-09-02T10:08:40.001Z,30.40
2018-09-02T10:11:08.698Z,30.03
2018-09-02T10:13:37.213Z,29.89
2018-09-02T10:16:06.482Z,28.97
2018-09-02T10:18:34.943Z,28.80
2018-09-02T10:21:03.485Z,29.27
2018-09-02T10:23:32.438Z,28.84
2018-09-02T10:26:00.876Z,28.69
2018-09-02T10:28:29.330Z,28.68
2018-09-02T10:30:58.293Z,28.88
2018-09-02T10:33:26.836Z,29.44
2018-09-02T10:35:55.198Z,29.98
2018-09-02T10:38:24.242Z,30.42
2018-09-02T10:40:52.681Z,30.86
2018-09-02T10:43:22.152Z,31.15
2018-09-02T10:45:50.710Z,31.40
2018-09-02T10:48:19.153Z,31.54
2018-09-02T10:50:47.582Z,31.73
2018-09-02T10:53:16.117Z,31.86
2018-09-02T10:55:44.549Z,31.69
2018-09-02T10:58:12.978Z,31.47
2018-09-02T11:00:41.892Z,31.56
2018-09-02T11:03:10.331Z,31.75
2018-09-02T11:05:38.785Z,31.95
2018-09-02T11:08:07.342Z,32.18
2018-09-02T11:10:35.796Z,31.91
2018-09-02T11:13:04.461Z,31.72
2018-09-02T11:15:33.601Z,32.21
2018-09-02T11:18:02.117Z,31.12
2018-09-02T11:20:30.625Z,31.04
2018-09-02T11:22:59.110Z,31.09
2018-09-02T11:27:54.966Z,30.53
2018-09-02T11:30:23.441Z,29.91
2018-09-02T11:32:58.542Z,28.74
2018-09-02T11:35:27.465Z,29.16
2018-09-02T11:37:55.918Z,29.92
2018-09-02T11:40:24.449Z,30.39
2018-09-02T11:42:53.162Z,29.77
2018-09-02T11:45:22.540Z,29.76
2018-09-02T11:47:50.979Z,29.70
2018-09-02T11:50:19.582Z,29.75
2018-09-02T11:52:48.072Z,29.69
2018-09-02T11:55:16.545Z,28.90
2018-09-02T11:57:45.465Z,28.72
2018-09-02T12:00:13.995Z,28.97
2018-09-02T12:02:42.481Z,29.31
2018-09-02T12:05:11.426Z,29.48
2018-09-02T12:07:40.057Z,29.32
2018-09-02T12:10:08.662Z,29.31
2018-09-02T12:12:37.673Z,29.95
2018-09-02T12:15:06.639Z,30.47
2018-09-02T12:17:35.089Z,30.90
2018-09-02T12:20:03.740Z,31.24
2018-09-02T12:22:32.188Z,31.13
2018-09-02T12:25:00.806Z,31.07
2018-09-02T12:27:29.498Z,31.18
2018-09-02T12:29:57.941Z,31.73
2018-09-02T12:32:26.433Z,32.36
2018-09-02T12:34:55.009Z,32.92
2018-09-02T12:37:23.487Z,33.49
2018-09-02T12:39:51.949Z,33.96
2018-09-02T12:42:21.158Z,33.93
2018-09-02T12:44:49.823Z,33.67
2018-09-02T12:47:18.305Z,33.78
2018-09-02T12:49:46.857Z,34.39
2018-09-02T12:52:15.307Z,34.76
2018-09-02T12:54:43.762Z,35.25
2018-09-02T12:57:12.285Z,35.49
2018-09-02T12:59:40.738Z,35.55
2018-09-02T13:02:09.198Z,35.76
2018-09-02T13:04:37.938Z,36.07
2018-09-02T13:07:06.523Z,35.70
2018-09-02T13:09:35.022Z,34.10
2018-09-02T13:12:03.454Z,34.01
2018-09-02T13:14:31.929Z,34.50
2018-09-02T13:17:00.521Z,34.58
2018-09-02T13:19:29.002Z,34.42
2018-09-02T13:21:57.476Z,33.93
2018-09-02T13:24:26.051Z,34.17
2018-09-02T13:26:54.705Z,34.66
2018-09-02T13:29:23.194Z,35.28
2018-09-02T13:31:51.757Z,35.35
2018-09-02T13:34:20.289Z,35.78
2018-09-02T13:36:48.786Z,35.83
2018-09-02T13:39:17.228Z,34.06
2018-09-02T13:41:45.801Z,33.54
2018-09-02T13:44:14.229Z,34.16
2018-09-02T13:46:42.829Z,34.89
2018-09-02T13:49:11.541Z,34.78
2018-09-02T13:51:40.135Z,35.00
2018-09-02T13:54:08.479Z,34.60
2018-09-02T13:56:37.359Z,33.26
2018-09-02T13:59:05.829Z,33.06
2018-09-02T14:01:34.283Z,33.35
2018-09-02T14:04:03.270Z,33.17
2018-09-02T14:06:32.007Z,33.15
2018-09-02T14:09:00.472Z,31.87
2018-09-02T14:11:29.119Z,31.44
2018-09-02T14:13:57.790Z,31.74
2018-09-02T14:16:26.404Z,32.30
2018-09-02T14:19:01.847Z,33.44
2018-09-02T14:21:30.371Z,34.29
2018-09-02T14:23:58.819Z,34.42
2018-09-02T14:26:27.488Z,32.67
2018-09-02T14:28:55.939Z,31.75
2018-09-02T14:31:24.452Z,31.30
2018-09-02T14:33:53.002Z,31.53
2018-09-02T14:36:21.486Z,31.82
2018-09-02T14:38:50.349Z,31.73
2018-09-02T14:41:18.996Z,31.28
2018-09-02T14:43:47.567Z,30.96
2018-09-02T14:46:16.043Z,31.21
2018-09-02T14:48:44.595Z,32.36
2018-09-02T14:51:13.101Z,33.00
2018-09-02T14:53:41.653Z,32.11
2018-09-02T14:56:10.722Z,32.41
2018-09-02T14:58:39.270Z,33.07
2018-09-02T15:01:07.798Z,33.42
2018-09-02T15:03:36.648Z,32.75
2018-09-02T15:06:05.143Z,32.86
2018-09-02T15:08:33.597Z,32.57
2018-09-02T15:11:02.601Z,31.19
2018-09-02T15:13:31.198Z,30.17
2018-09-02T15:15:59.673Z,29.19
2018-09-02T15:18:28.272Z,29.08
2018-09-02T15:20:56.919Z,29.15
2018-09-02T15:23:25.360Z,29.32
2018-09-02T15:25:54.321Z,29.12
2018-09-02T15:28:23.446Z,29.46
2018-09-02T15:30:51.869Z,29.11
2018-09-02T15:33:20.517Z,29.69
2018-09-02T15:35:49.257Z,30.60
2018-09-02T15:38:17.705Z,30.81
2018-09-02T15:40:46.565Z,30.11
2018-09-02T15:43:14.985Z,29.75
2018-09-02T15:45:43.459Z,28.86
2018-09-02T15:48:12.376Z,28.58
2018-09-02T15:50:41.465Z,28.90
2018-09-02T15:53:09.918Z,29.38
2018-09-02T15:55:38.516Z,29.83
2018-09-02T15:58:06.996Z,30.24
2018-09-02T16:00:35.568Z,29.37
2018-09-02T16:03:04.090Z,28.75
2018-09-02T16:05:32.582Z,28.58
2018-09-02T16:08:01.033Z,28.61
2018-09-02T16:10:29.961Z,28.74
2018-09-02T16:12:58.422Z,28.92
2018-09-02T16:15:26.898Z,28.81
2018-09-02T16:17:55.655Z,28.64
2018-09-02T16:20:24.181Z,28.30
2018-09-02T16:22:52.827Z,27.78
2018-09-02T16:25:23.434Z,27.29
2018-09-02T16:27:51.916Z,27.07
2018-09-02T16:30:20.697Z,27.41
2018-09-02T16:32:49.487Z,28.01
2018-09-02T16:35:17.929Z,28.23
2018-09-02T16:37:46.375Z,28.13
2018-09-02T16:40:14.837Z,27.87
2018-09-02T16:42:43.345Z,27.40
2018-09-02T16:45:11.855Z,26.58
2018-09-02T16:47:40.541Z,25.71
2018-09-02T16:50:12.460Z,24.92
2018-09-02T16:52:41.303Z,24.56
2018-09-02T16:55:09.776Z,24.22
2018-09-02T16:57:38.213Z,23.92
2018-09-02T17:00:08.038Z,23.64
2018-09-02T17:02:36.504Z,23.58
2018-09-02T17:05:10.385Z,23.53
2018-09-02T17:07:39.013Z,23.45
2018-09-02T17:10:07.563Z,23.40
2018-09-02T17:12:36.182Z,23.24
2018-09-02T17:15:05.257Z,23.18
2018-09-02T17:17:33.677Z,23.12
2018-09-02T17:20:02.188Z,22.93
2018-09-02T17:22:30.752Z,22.72
2018-09-02T17:24:59.394Z,22.69
2018-09-02T17:27:27.879Z,22.67
2018-09-02T17:29:56.759Z,22.51
2018-09-02T17:32:26.163Z,22.27
2018-09-02T17:34:54.885Z,22.03
2018-09-02T17:37:23.533Z,21.93
2018-09-02T17:39:51.992Z,21.89
2018-09-02T17:42:20.971Z,21.90
2018-09-02T17:44:58.642Z,21.90
2018-09-02T17:47:27.110Z,21.86
2018-09-02T17:49:55.552Z,21.71
2018-09-02T17:52:24.255Z,21.65
2018-09-02T17:54:53.121Z,21.60
2018-09-02T17:57:21.718Z,21.46
2018-09-02T17:59:50.346Z,21.38
2018-09-02T18:02:18.910Z,21.30
2018-09-02T18:04:47.356Z,21.25
2018-09-02T18:07:15.927Z,21.14
2018-09-02T18:09:44.558Z,20.99
2018-09-02T18:12:13.006Z,20.84
2018-09-02T18:14:41.578Z,20.78
2018-09-02T18:17:10.058Z,20.77
2018-09-02T18:19:38.527Z,20.65
2018-09-02T18:22:07.440Z,20.62
2018-09-02T18:24:35.965Z,20.59
2018-09-02T18:27:04.731Z,20.56
2018-09-02T18:29:33.253Z,20.53
2018-09-02T18:32:01.754Z,20.53
2018-09-02T18:34:30.313Z,20.51
2018-09-02T18:36:58.951Z,20.43
2018-09-02T18:39:27.499Z,20.37
2018-09-02T18:41:55.918Z,20.34
2018-09-02T18:44:24.533Z,20.31
2018-09-02T18:46:53.392Z,20.24
2018-09-02T18:49:21.913Z,20.10
2018-09-02T18:51:50.777Z,20.00
2018-09-02T18:54:19.307Z,19.97
2018-09-02T18:56:47.930Z,19.96
2018-09-02T18:59:16.597Z,19.93
2018-09-02T19:01:45.272Z,19.88
2018-09-02T19:04:13.776Z,19.74
2018-09-02T19:06:42.285Z,19.65
2018-09-02T19:09:11.021Z,19.60
2018-09-02T19:11:39.466Z,19.58
2018-09-02T19:14:08.332Z,19.55
2018-09-02T19:16:36.796Z,19.50
2018-09-02T19:19:05.290Z,19.43
2018-09-02T19:21:34.033Z,19.30
2018-09-02T19:24:02.599Z,19.08
2018-09-02T19:26:31.045Z,19.18
2018-09-02T19:28:59.754Z,19.12
2018-09-02T19:31:28.298Z,19.08
2018-09-02T19:33:57.801Z,19.07
2018-09-02T19:36:27.737Z,19.04
2018-09-02T19:38:56.249Z,18.96
2018-09-02T19:41:24.698Z,18.95
2018-09-02T19:43:53.489Z,18.95
2018-09-02T19:46:22.488Z,18.94
2018-09-02T19:48:50.958Z,18.92
2018-09-02T19:51:19.610Z,18.81
2018-09-02T19:53:48.129Z,18.70
2018-09-02T19:56:16.625Z,18.62
2018-09-02T19:58:45.617Z,18.60
2018-09-02T20:01:14.064Z,18.54
2018-09-02T20:03:42.508Z,18.49
2018-09-02T20:06:11.133Z,18.46
2018-09-02T20:08:39.566Z,18.38
2018-09-02T20:11:07.993Z,18.33
2018-09-02T20:13:36.550Z,18.32
2018-09-02T20:16:05.001Z,18.31
2018-09-02T20:18:33.469Z,18.29
2018-09-02T20:21:03.098Z,18.27
2018-09-02T20:23:31.648Z,18.23
2018-09-02T20:26:00.081Z,18.20
2018-09-02T20:28:29.044Z,18.12
2018-09-02T20:30:57.686Z,17.97
2018-09-02T20:33:26.157Z,17.99
2018-09-02T20:35:55.090Z,18.01
2018-09-02T20:38:23.754Z,18.04
2018-09-02T20:40:52.202Z,18.06
2018-09-02T20:43:21.452Z,18.04
2018-09-02T20:45:49.947Z,17.98
2018-09-02T20:48:18.610Z,17.97
2018-09-02T20:50:47.561Z,17.90
2018-09-02T20:53:16.038Z,17.85
2018-09-02T20:55:44.482Z,17.75
2018-09-02T20:58:13.046Z,17.65
2018-09-02T21:00:41.465Z,17.56
2018-09-02T21:03:10.796Z,17.56
2018-09-02T21:05:39.522Z,17.60
2018-09-02T21:08:08.079Z,17.61
2018-09-02T21:10:36.613Z,17.58
2018-09-02T21:13:05.182Z,17.58
2018-09-02T21:15:33.620Z,17.47
2018-09-02T21:18:02.081Z,17.42
2018-09-02T21:20:30.754Z,17.32
2018-09-02T21:22:59.216Z,17.24
2018-09-02T21:25:27.681Z,17.21
2018-09-02T21:27:56.630Z,17.17
2018-09-02T21:30:25.113Z,17.07
2018-09-02T21:32:53.717Z,16.98
2018-09-02T21:35:22.187Z,16.95
2018-09-02T21:37:50.968Z,16.93
2018-09-02T21:40:20.086Z,16.90
2018-09-02T21:42:48.718Z,16.09
2018-09-02T21:45:17.209Z,16.78
2018-09-02T21:47:46.057Z,16.73
2018-09-02T21:50:15.149Z,16.67
2018-09-02T21:52:43.664Z,16.61
2018-09-02T21:55:19.205Z,16.61
2018-09-02T21:57:47.666Z,16.60
2018-09-02T22:00:17.408Z,16.59
2018-09-02T22:02:46.798Z,16.57
2018-09-02T22:05:16.571Z,16.54
2018-09-02T22:07:45.018Z,16.53
2018-09-02T22:10:13.581Z,16.50
2018-09-02T22:12:42.082Z,16.45
2018-09-02T22:15:11.194Z,16.43
2018-09-02T22:17:40.071Z,16.37
2018-09-02T22:20:08.699Z,16.37
2018-09-02T22:22:37.141Z,16.38
2018-09-02T22:25:06.733Z,16.31
2018-09-02T22:27:35.209Z,16.28
2018-09-02T22:30:04.497Z,16.21
2018-09-02T22:32:33.390Z,15.32
2018-09-02T22:35:01.951Z,16.16
2018-09-02T22:37:37.407Z,16.14
2018-09-02T22:40:05.913Z,16.11
2018-09-02T22:42:34.513Z,16.10
2018-09-02T22:45:03.333Z,16.08
2018-09-02T22:47:38.297Z,16.06
2018-09-02T22:50:07.125Z,16.07
2018-09-02T22:52:35.573Z,16.07
2018-09-02T22:55:04.052Z,16.04
2018-09-02T22:57:32.729Z,16.05
2018-09-02T23:00:01.217Z,16.04
2018-09-02T23:02:36.559Z,16.01
2018-09-02T23:05:05.118Z,16.01
2018-09-02T23:07:33.561Z,16.00
2018-09-02T23:10:02.411Z,15.98
2018-09-02T23:12:31.187Z,15.97
2018-09-02T23:14:59.647Z,15.99
2018-09-02T23:17:28.469Z,16.01
2018-09-02T23:19:56.949Z,15.97
2018-09-02T23:22:25.373Z,15.98
2018-09-02T23:24:54.049Z,15.95
2018-09-02T23:27:22.473Z,15.89
2018-09-02T23:29:50.965Z,15.87
2018-09-02T23:32:19.857Z,15.84
2018-09-02T23:34:48.336Z,15.80
2018-09-02T23:37:17.081Z,15.80
2018-09-02T23:39:45.733Z,15.78
2018-09-02T23:42:14.173Z,15.78
2018-09-02T23:44:42.912Z,15.72
2018-09-02T23:47:11.781Z,15.69
2018-09-02T23:49:40.218Z,15.66
2018-09-02T23:52:08.664Z,15.63
2018-09-02T23:54:37.201Z,15.59
2018-09-02T23:57:05.909Z,15.56
2018-09-02T23:59:34.641Z,15.55
